sensor_id;sensor_type;location;lat;lon;timestamp;temperature;humidity
16313;DHT22;8265;52.622;13.296;2022-09-21T00:01:53;6.80;99.90
16313;DHT22;8265;52.622;13.296;2022-09-21T00:07:14;6.70;99.90
16313;DHT22;8265;52.622;13.296;2022-09-21T00:12:35;6.80;99.90
16313;DHT22;8265;52.622;13.296;2022-09-21T00:17:56;6.60;99.90
16313;DHT22;8265;52.622;13.296;2022-09-21T00:23:17;6.50;99.90
16313;DHT22;8265;52.622;13.296;2022-09-21T00:28:39;6.50;99.90
16313;DHT22;8265;52.622;13.296;2022-09-21T00:33:59;6.50;99.90
16313;DHT22;8265;52.622;13.296;2022-09-21T00:39:20;6.40;99.90
16313;DHT22;8265;52.622;13.296;2022-09-21T00:44:41;6.40;99.90
16313;DHT22;8265;52.622;13.296;2022-09-21T00:50:03;6.40;99.90
16313;DHT22;8265;52.622;13.296;2022-09-21T00:55:24;6.50;99.90
16313;DHT22;8265;52.622;13.296;2022-09-21T01:00:44;6.60;99.90
16313;DHT22;8265;52.622;13.296;2022-09-21T01:06:05;6.80;99.90
16313;DHT22;8265;52.622;13.296;2022-09-21T01:11:31;6.80;99.90
16313;DHT22;8265;52.622;13.296;2022-09-21T01:16:50;7.10;99.90
16313;DHT22;8265;52.622;13.296;2022-09-21T01:22:09;7.00;99.90
16313;DHT22;8265;52.622;13.296;2022-09-21T01:32:51;7.10;99.90
16313;DHT22;8265;52.622;13.296;2022-09-21T01:38:11;6.90;99.90
16313;DHT22;8265;52.622;13.296;2022-09-21T01:43:33;6.80;99.90
16313;DHT22;8265;52.622;13.296;2022-09-21T01:48:53;6.70;99.90
16313;DHT22;8265;52.622;13.296;2022-09-21T01:54:15;6.60;99.90
16313;DHT22;8265;52.622;13.296;2022-09-21T01:59:37;6.50;99.90
16313;DHT22;8265;52.622;13.296;2022-09-21T02:04:56;6.40;99.90
16313;DHT22;8265;52.622;13.296;2022-09-21T02:10:18;6.30;99.90
16313;DHT22;8265;52.622;13.296;2022-09-21T02:15:42;6.20;99.90
16313;DHT22;8265;52.622;13.296;2022-09-21T02:20:59;6.20;99.90
16313;DHT22;8265;52.622;13.296;2022-09-21T02:26:21;6.10;99.90
16313;DHT22;8265;52.622;13.296;2022-09-21T02:31:42;6.10;99.90
16313;DHT22;8265;52.622;13.296;2022-09-21T02:37:03;6.00;99.90
16313;DHT22;8265;52.622;13.296;2022-09-21T02:42:23;5.90;99.90
16313;DHT22;8265;52.622;13.296;2022-09-21T02:47:45;5.90;99.90
16313;DHT22;8265;52.622;13.296;2022-09-21T02:53:06;5.90;99.90
16313;DHT22;8265;52.622;13.296;2022-09-21T02:58:25;5.90;99.90
16313;DHT22;8265;52.622;13.296;2022-09-21T03:03:46;5.90;99.90
16313;DHT22;8265;52.622;13.296;2022-09-21T03:09:07;5.90;99.90
16313;DHT22;8265;52.622;13.296;2022-09-21T03:14:28;5.80;99.90
16313;DHT22;8265;52.622;13.296;2022-09-21T03:19:49;5.80;99.90
16313;DHT22;8265;52.622;13.296;2022-09-21T03:25:10;5.80;99.90
16313;DHT22;8265;52.622;13.296;2022-09-21T03:30:31;5.80;99.90
16313;DHT22;8265;52.622;13.296;2022-09-21T03:35:52;5.90;99.90
16313;DHT22;8265;52.622;13.296;2022-09-21T03:41:13;5.80;99.90
16313;DHT22;8265;52.622;13.296;2022-09-21T03:46:34;5.80;99.90
16313;DHT22;8265;52.622;13.296;2022-09-21T03:51:55;5.90;99.90
16313;DHT22;8265;52.622;13.296;2022-09-21T03:57:16;5.90;99.90
16313;DHT22;8265;52.622;13.296;2022-09-21T04:02:37;5.70;99.90
16313;DHT22;8265;52.622;13.296;2022-09-21T04:07:58;5.70;99.90
16313;DHT22;8265;52.622;13.296;2022-09-21T04:13:20;5.70;99.90
16313;DHT22;8265;52.622;13.296;2022-09-21T04:18:40;5.70;99.90
16313;DHT22;8265;52.622;13.296;2022-09-21T04:24:01;5.80;99.90
16313;DHT22;8265;52.622;13.296;2022-09-21T04:29:22;5.70;99.90
16313;DHT22;8265;52.622;13.296;2022-09-21T04:34:43;5.60;99.90
16313;DHT22;8265;52.622;13.296;2022-09-21T04:40:05;5.60;99.90
16313;DHT22;8265;52.622;13.296;2022-09-21T04:45:25;5.60;99.90
16313;DHT22;8265;52.622;13.296;2022-09-21T04:50:49;5.60;99.90
16313;DHT22;8265;52.622;13.296;2022-09-21T04:56:07;5.70;99.90
16313;DHT22;8265;52.622;13.296;2022-09-21T05:01:28;5.70;99.90
16313;DHT22;8265;52.622;13.296;2022-09-21T05:06:49;5.80;99.90
16313;DHT22;8265;52.622;13.296;2022-09-21T05:12:10;5.80;99.90
16313;DHT22;8265;52.622;13.296;2022-09-21T05:17:31;5.90;99.90
16313;DHT22;8265;52.622;13.296;2022-09-21T05:22:51;6.00;99.90
16313;DHT22;8265;52.622;13.296;2022-09-21T05:28:13;6.20;99.90
16313;DHT22;8265;52.622;13.296;2022-09-21T05:33:33;6.40;99.90
16313;DHT22;8265;52.622;13.296;2022-09-21T05:38:55;6.50;99.90
16313;DHT22;8265;52.622;13.296;2022-09-21T05:44:16;6.70;99.90
16313;DHT22;8265;52.622;13.296;2022-09-21T05:49:43;6.80;99.90
16313;DHT22;8265;52.622;13.296;2022-09-21T05:55:01;6.90;99.90
16313;DHT22;8265;52.622;13.296;2022-09-21T06:00:19;6.90;99.90
16313;DHT22;8265;52.622;13.296;2022-09-21T06:05:39;7.00;99.90
16313;DHT22;8265;52.622;13.296;2022-09-21T06:11:00;7.20;99.90
16313;DHT22;8265;52.622;13.296;2022-09-21T06:16:21;7.40;99.90
16313;DHT22;8265;52.622;13.296;2022-09-21T06:21:42;7.80;99.90
16313;DHT22;8265;52.622;13.296;2022-09-21T06:27:03;8.30;99.90
16313;DHT22;8265;52.622;13.296;2022-09-21T06:32:24;8.50;99.90
16313;DHT22;8265;52.622;13.296;2022-09-21T06:37:45;8.50;99.90
16313;DHT22;8265;52.622;13.296;2022-09-21T06:43:06;8.80;99.90
16313;DHT22;8265;52.622;13.296;2022-09-21T06:48:27;9.00;99.90
16313;DHT22;8265;52.622;13.296;2022-09-21T06:53:48;9.20;99.90
16313;DHT22;8265;52.622;13.296;2022-09-21T06:59:09;9.20;99.90
16313;DHT22;8265;52.622;13.296;2022-09-21T07:04:30;9.50;99.90
16313;DHT22;8265;52.622;13.296;2022-09-21T07:09:51;9.80;99.90
16313;DHT22;8265;52.622;13.296;2022-09-21T07:15:13;10.00;99.90
16313;DHT22;8265;52.622;13.296;2022-09-21T07:20:33;10.00;99.90
16313;DHT22;8265;52.622;13.296;2022-09-21T07:25:54;10.20;99.90
16313;DHT22;8265;52.622;13.296;2022-09-21T07:31:15;10.20;99.90
16313;DHT22;8265;52.622;13.296;2022-09-21T07:36:35;10.30;99.90
16313;DHT22;8265;52.622;13.296;2022-09-21T07:41:57;10.50;99.90
16313;DHT22;8265;52.622;13.296;2022-09-21T07:47:17;10.50;99.90
16313;DHT22;8265;52.622;13.296;2022-09-21T07:52:38;10.80;99.90
16313;DHT22;8265;52.622;13.296;2022-09-21T07:57:59;10.90;99.90
16313;DHT22;8265;52.622;13.296;2022-09-21T08:03:20;11.30;99.90
16313;DHT22;8265;52.622;13.296;2022-09-21T08:08:41;11.60;99.90
16313;DHT22;8265;52.622;13.296;2022-09-21T08:14:02;11.70;99.90
16313;DHT22;8265;52.622;13.296;2022-09-21T08:19:23;11.60;99.90
16313;DHT22;8265;52.622;13.296;2022-09-21T08:24:44;11.70;99.90
16313;DHT22;8265;52.622;13.296;2022-09-21T08:30:07;11.90;99.90
16313;DHT22;8265;52.622;13.296;2022-09-21T08:35:26;12.20;99.90
16313;DHT22;8265;52.622;13.296;2022-09-21T08:40:47;12.20;99.90
16313;DHT22;8265;52.622;13.296;2022-09-21T08:46:10;11.80;99.90
16313;DHT22;8265;52.622;13.296;2022-09-21T08:51:30;11.70;99.90
16313;DHT22;8265;52.622;13.296;2022-09-21T08:56:50;11.80;99.90
16313;DHT22;8265;52.622;13.296;2022-09-21T09:02:25;12.10;99.90
16313;DHT22;8265;52.622;13.296;2022-09-21T09:07:44;12.40;99.90
16313;DHT22;8265;52.622;13.296;2022-09-21T09:12:56;12.80;99.90
16313;DHT22;8265;52.622;13.296;2022-09-21T09:18:16;13.00;99.90
16313;DHT22;8265;52.622;13.296;2022-09-21T09:23:36;13.40;99.90
16313;DHT22;8265;52.622;13.296;2022-09-21T09:28:56;13.70;99.90
16313;DHT22;8265;52.622;13.296;2022-09-21T09:34:17;13.90;99.90
16313;DHT22;8265;52.622;13.296;2022-09-21T09:39:37;13.90;99.90
16313;DHT22;8265;52.622;13.296;2022-09-21T09:45:11;14.10;99.90
16313;DHT22;8265;52.622;13.296;2022-09-21T09:50:22;14.50;99.90
16313;DHT22;8265;52.622;13.296;2022-09-21T09:55:41;14.60;99.90
16313;DHT22;8265;52.622;13.296;2022-09-21T10:01:01;14.80;99.90
16313;DHT22;8265;52.622;13.296;2022-09-21T10:06:30;15.10;99.90
16313;DHT22;8265;52.622;13.296;2022-09-21T10:11:43;15.50;99.90
16313;DHT22;8265;52.622;13.296;2022-09-21T10:17:06;15.70;99.90
16313;DHT22;8265;52.622;13.296;2022-09-21T10:22:25;15.80;99.90
16313;DHT22;8265;52.622;13.296;2022-09-21T10:27:47;16.10;99.90
16313;DHT22;8265;52.622;13.296;2022-09-21T10:33:15;17.00;99.90
16313;DHT22;8265;52.622;13.296;2022-09-21T10:38:28;17.00;99.90
16313;DHT22;8265;52.622;13.296;2022-09-21T10:43:49;17.00;99.90
16313;DHT22;8265;52.622;13.296;2022-09-21T10:49:15;17.20;99.90
16313;DHT22;8265;52.622;13.296;2022-09-21T10:54:31;16.90;99.90
16313;DHT22;8265;52.622;13.296;2022-09-21T10:59:52;16.40;99.90
16313;DHT22;8265;52.622;13.296;2022-09-21T11:05:14;17.00;99.90
16313;DHT22;8265;52.622;13.296;2022-09-21T11:10:37;17.40;99.90
16313;DHT22;8265;52.622;13.296;2022-09-21T11:16:00;16.80;99.90
16313;DHT22;8265;52.622;13.296;2022-09-21T11:21:18;16.60;99.90
16313;DHT22;8265;52.622;13.296;2022-09-21T11:26:39;16.60;99.90
16313;DHT22;8265;52.622;13.296;2022-09-21T11:32:13;16.60;99.90
16313;DHT22;8265;52.622;13.296;2022-09-21T11:37:24;16.30;99.90
16313;DHT22;8265;52.622;13.296;2022-09-21T11:42:47;16.10;99.90
16313;DHT22;8265;52.622;13.296;2022-09-21T11:48:06;15.90;99.90
16313;DHT22;8265;52.622;13.296;2022-09-21T11:53:27;16.50;99.90
16313;DHT22;8265;52.622;13.296;2022-09-21T11:58:45;17.20;99.90
16313;DHT22;8265;52.622;13.296;2022-09-21T12:04:13;16.90;99.90
16313;DHT22;8265;52.622;13.296;2022-09-21T12:09:38;16.30;99.90
16313;DHT22;8265;52.622;13.296;2022-09-21T12:14:47;16.10;99.90
16313;DHT22;8265;52.622;13.296;2022-09-21T12:20:10;15.90;99.90
16313;DHT22;8265;52.622;13.296;2022-09-21T12:25:30;16.10;99.90
16313;DHT22;8265;52.622;13.296;2022-09-21T12:30:49;16.30;99.90
16313;DHT22;8265;52.622;13.296;2022-09-21T12:36:11;16.40;99.90
16313;DHT22;8265;52.622;13.296;2022-09-21T12:41:36;16.20;99.90
16313;DHT22;8265;52.622;13.296;2022-09-21T12:46:53;16.20;99.90
16313;DHT22;8265;52.622;13.296;2022-09-21T12:52:18;16.50;99.90
16313;DHT22;8265;52.622;13.296;2022-09-21T12:57:38;16.90;99.90
16313;DHT22;8265;52.622;13.296;2022-09-21T13:02:55;16.40;99.90
16313;DHT22;8265;52.622;13.296;2022-09-21T13:08:16;15.90;99.90
16313;DHT22;8265;52.622;13.296;2022-09-21T13:13:37;15.50;99.90
16313;DHT22;8265;52.622;13.296;2022-09-21T13:18:58;15.30;99.90
16313;DHT22;8265;52.622;13.296;2022-09-21T13:24:24;15.80;99.90
16313;DHT22;8265;52.622;13.296;2022-09-21T13:29:39;16.40;99.90
16313;DHT22;8265;52.622;13.296;2022-09-21T13:40:38;17.10;99.90
16313;DHT22;8265;52.622;13.296;2022-09-21T13:45:57;17.50;99.90
16313;DHT22;8265;52.622;13.296;2022-09-21T13:51:07;18.20;99.90
16313;DHT22;8265;52.622;13.296;2022-09-21T13:56:24;17.90;99.90
16313;DHT22;8265;52.622;13.296;2022-09-21T14:01:45;17.90;99.90
16313;DHT22;8265;52.622;13.296;2022-09-21T14:07:06;17.60;99.90
16313;DHT22;8265;52.622;13.296;2022-09-21T14:12:30;17.70;99.90
16313;DHT22;8265;52.622;13.296;2022-09-21T14:23:26;17.80;99.90
16313;DHT22;8265;52.622;13.296;2022-09-21T14:28:34;17.70;99.90
16313;DHT22;8265;52.622;13.296;2022-09-21T14:33:51;17.60;99.90
16313;DHT22;8265;52.622;13.296;2022-09-21T14:39:15;17.80;99.90
16313;DHT22;8265;52.622;13.296;2022-09-21T14:44:33;18.00;99.90
16313;DHT22;8265;52.622;13.296;2022-09-21T14:50:04;17.90;99.90
16313;DHT22;8265;52.622;13.296;2022-09-21T14:55:19;17.70;99.90
16313;DHT22;8265;52.622;13.296;2022-09-21T15:00:39;17.80;99.90
16313;DHT22;8265;52.622;13.296;2022-09-21T15:05:57;17.90;99.90
16313;DHT22;8265;52.622;13.296;2022-09-21T15:11:21;17.80;99.90
16313;DHT22;8265;52.622;13.296;2022-09-21T15:16:40;17.60;99.90
16313;DHT22;8265;52.622;13.296;2022-09-21T15:22:13;17.60;99.90
16313;DHT22;8265;52.622;13.296;2022-09-21T15:27:21;17.50;99.90
16313;DHT22;8265;52.622;13.296;2022-09-21T15:32:41;17.30;99.90
16313;DHT22;8265;52.622;13.296;2022-09-21T15:38:02;17.30;99.90
16313;DHT22;8265;52.622;13.296;2022-09-21T15:43:23;17.30;99.90
16313;DHT22;8265;52.622;13.296;2022-09-21T15:48:44;17.00;99.90
16313;DHT22;8265;52.622;13.296;2022-09-21T15:54:07;16.80;99.90
16313;DHT22;8265;52.622;13.296;2022-09-21T15:59:26;16.60;99.90
16313;DHT22;8265;52.622;13.296;2022-09-21T16:04:47;16.50;99.90
16313;DHT22;8265;52.622;13.296;2022-09-21T16:10:36;16.40;99.90
16313;DHT22;8265;52.622;13.296;2022-09-21T16:15:29;16.10;99.90
16313;DHT22;8265;52.622;13.296;2022-09-21T16:20:50;15.80;99.90
16313;DHT22;8265;52.622;13.296;2022-09-21T16:26:18;15.50;99.90
16313;DHT22;8265;52.622;13.296;2022-09-21T16:31:33;15.10;99.90
16313;DHT22;8265;52.622;13.296;2022-09-21T16:36:53;14.70;99.90
16313;DHT22;8265;52.622;13.296;2022-09-21T16:42:14;14.30;99.90
16313;DHT22;8265;52.622;13.296;2022-09-21T16:47:35;14.00;99.90
16313;DHT22;8265;52.622;13.296;2022-09-21T16:52:56;13.70;99.90
16313;DHT22;8265;52.622;13.296;2022-09-21T16:58:17;13.40;99.90
16313;DHT22;8265;52.622;13.296;2022-09-21T17:03:38;13.10;99.90
16313;DHT22;8265;52.622;13.296;2022-09-21T17:08:58;12.80;99.90
16313;DHT22;8265;52.622;13.296;2022-09-21T17:14:20;12.60;99.90
16313;DHT22;8265;52.622;13.296;2022-09-21T17:19:40;12.30;99.90
16313;DHT22;8265;52.622;13.296;2022-09-21T17:25:02;12.10;99.90
16313;DHT22;8265;52.622;13.296;2022-09-21T17:30:23;11.90;99.90
16313;DHT22;8265;52.622;13.296;2022-09-21T17:35:44;11.60;99.90
16313;DHT22;8265;52.622;13.296;2022-09-21T17:41:08;11.40;99.90
16313;DHT22;8265;52.622;13.296;2022-09-21T17:46:28;11.20;99.90
16313;DHT22;8265;52.622;13.296;2022-09-21T17:51:47;10.90;99.90
16313;DHT22;8265;52.622;13.296;2022-09-21T17:57:12;10.70;99.90
16313;DHT22;8265;52.622;13.296;2022-09-21T18:02:29;10.70;99.90
16313;DHT22;8265;52.622;13.296;2022-09-21T18:07:50;10.50;99.90
16313;DHT22;8265;52.622;13.296;2022-09-21T18:13:17;10.30;99.90
16313;DHT22;8265;52.622;13.296;2022-09-21T18:18:38;10.20;99.90
16313;DHT22;8265;52.622;13.296;2022-09-21T18:29:22;10.20;99.90
16313;DHT22;8265;52.622;13.296;2022-09-21T18:34:54;10.10;99.90
16313;DHT22;8265;52.622;13.296;2022-09-21T18:40:00;9.90;99.90
16313;DHT22;8265;52.622;13.296;2022-09-21T18:45:20;9.80;99.90
16313;DHT22;8265;52.622;13.296;2022-09-21T18:50:39;9.70;99.90
16313;DHT22;8265;52.622;13.296;2022-09-21T18:55:59;9.70;99.90
16313;DHT22;8265;52.622;13.296;2022-09-21T19:01:20;9.80;99.90
16313;DHT22;8265;52.622;13.296;2022-09-21T19:06:44;9.80;99.90
16313;DHT22;8265;52.622;13.296;2022-09-21T19:12:04;9.80;99.90
16313;DHT22;8265;52.622;13.296;2022-09-21T19:17:27;9.60;99.90
16313;DHT22;8265;52.622;13.296;2022-09-21T19:22:44;9.30;99.90
16313;DHT22;8265;52.622;13.296;2022-09-21T19:28:06;9.10;99.90
16313;DHT22;8265;52.622;13.296;2022-09-21T19:33:26;9.10;99.90
16313;DHT22;8265;52.622;13.296;2022-09-21T19:38:46;9.00;99.90
16313;DHT22;8265;52.622;13.296;2022-09-21T19:44:14;8.90;99.90
16313;DHT22;8265;52.622;13.296;2022-09-21T19:49:31;8.80;99.90
16313;DHT22;8265;52.622;13.296;2022-09-21T19:54:49;8.70;99.90
16313;DHT22;8265;52.622;13.296;2022-09-21T20:00:12;8.60;99.90
16313;DHT22;8265;52.622;13.296;2022-09-21T20:05:34;8.60;99.90
16313;DHT22;8265;52.622;13.296;2022-09-21T20:11:01;8.50;99.90
16313;DHT22;8265;52.622;13.296;2022-09-21T20:16:21;8.40;99.90
16313;DHT22;8265;52.622;13.296;2022-09-21T20:21:37;8.30;99.90
16313;DHT22;8265;52.622;13.296;2022-09-21T20:26:54;8.20;99.90
16313;DHT22;8265;52.622;13.296;2022-09-21T20:32:15;8.20;99.90
16313;DHT22;8265;52.622;13.296;2022-09-21T20:37:36;8.10;99.90
16313;DHT22;8265;52.622;13.296;2022-09-21T20:42:57;8.00;99.90
16313;DHT22;8265;52.622;13.296;2022-09-21T20:48:18;8.00;99.90
16313;DHT22;8265;52.622;13.296;2022-09-21T20:53:40;8.00;99.90
16313;DHT22;8265;52.622;13.296;2022-09-21T20:59:00;8.10;99.90
16313;DHT22;8265;52.622;13.296;2022-09-21T21:04:21;8.20;99.90
16313;DHT22;8265;52.622;13.296;2022-09-21T21:09:42;8.20;99.90
16313;DHT22;8265;52.622;13.296;2022-09-21T21:15:04;8.20;99.90
16313;DHT22;8265;52.622;13.296;2022-09-21T21:20:24;8.30;99.90
16313;DHT22;8265;52.622;13.296;2022-09-21T21:25:45;8.30;99.90
16313;DHT22;8265;52.622;13.296;2022-09-21T21:31:06;8.00;99.90
16313;DHT22;8265;52.622;13.296;2022-09-21T21:36:27;8.00;99.90
16313;DHT22;8265;52.622;13.296;2022-09-21T21:41:48;8.00;99.90
16313;DHT22;8265;52.622;13.296;2022-09-21T21:47:09;8.10;99.90
16313;DHT22;8265;52.622;13.296;2022-09-21T21:52:30;8.10;99.90
16313;DHT22;8265;52.622;13.296;2022-09-21T21:57:51;8.30;99.90
16313;DHT22;8265;52.622;13.296;2022-09-21T22:03:11;8.40;99.90
16313;DHT22;8265;52.622;13.296;2022-09-21T22:08:33;8.50;99.90
16313;DHT22;8265;52.622;13.296;2022-09-21T22:13:53;8.50;99.90
16313;DHT22;8265;52.622;13.296;2022-09-21T22:19:14;8.60;99.90
16313;DHT22;8265;52.622;13.296;2022-09-21T22:24:35;8.60;99.90
16313;DHT22;8265;52.622;13.296;2022-09-21T22:29:56;8.70;99.90
16313;DHT22;8265;52.622;13.296;2022-09-21T22:35:17;8.70;99.90
16313;DHT22;8265;52.622;13.296;2022-09-21T22:40:38;8.70;99.90
16313;DHT22;8265;52.622;13.296;2022-09-21T22:45:59;8.70;99.90
16313;DHT22;8265;52.622;13.296;2022-09-21T22:51:20;8.60;99.90
16313;DHT22;8265;52.622;13.296;2022-09-21T22:56:41;8.50;99.90
16313;DHT22;8265;52.622;13.296;2022-09-21T23:02:02;8.60;99.90
16313;DHT22;8265;52.622;13.296;2022-09-21T23:07:23;8.40;99.90
16313;DHT22;8265;52.622;13.296;2022-09-21T23:12:44;8.40;99.90
16313;DHT22;8265;52.622;13.296;2022-09-21T23:18:05;8.30;99.90
16313;DHT22;8265;52.622;13.296;2022-09-21T23:23:26;8.20;99.90
16313;DHT22;8265;52.622;13.296;2022-09-21T23:28:50;8.10;99.90
16313;DHT22;8265;52.622;13.296;2022-09-21T23:34:08;8.00;99.90
16313;DHT22;8265;52.622;13.296;2022-09-21T23:39:29;7.90;99.90
16313;DHT22;8265;52.622;13.296;2022-09-21T23:44:50;7.80;99.90
16313;DHT22;8265;52.622;13.296;2022-09-21T23:50:11;7.80;99.90
16313;DHT22;8265;52.622;13.296;2022-09-21T23:55:31;7.80;99.90
